CSAPA LPEV-LPCS
Flight info
| Callsign | CSAPA |
|---|---|
| Flight time | 0h 52m |
| Altitude | 2000 |
| Route | LPEV DCT VALVE DCT MNOVO DCT VNOVA TW SETUB TWTNW LALBU TNTWTNW BUGIO DCT CARCA DCT LPCS |
| Aircraft | C152/L-V/N |
Departure
| Time | 2026-05-07 16:30 |
|---|---|
| Airport | Évora Airfield (LPEV) |
Arrival
| Time | 2026-05-07 17:22 |
|---|---|
| Airport | Cascais Airport (LPCS) |
| Time | Latitude | Longitude | Altitude | Speed | Heading |
|---|---|---|---|---|---|
| 2026-05-07 16:22 | 38.53258 | -7.88871 | 810 ft | 0 kts | 4° |
| 2026-05-07 16:24 | 38.53259 | -7.88871 | 810 ft | 0 kts | 4° |
| 2026-05-07 16:26 | 38.53274 | -7.88873 | 810 ft | 3 kts | 320° |
| 2026-05-07 16:26 | 38.53266 | -7.88893 | 810 ft | 6 kts | 193° |
| 2026-05-07 16:26 | 38.53202 | -7.88897 | 810 ft | 12 kts | 179° |
| 2026-05-07 16:27 | 38.53116 | -7.88901 | 810 ft | 13 kts | 182° |
| 2026-05-07 16:27 | 38.53028 | -7.88915 | 810 ft | 12 kts | 180° |
| 2026-05-07 16:27 | 38.52941 | -7.88920 | 810 ft | 13 kts | 184° |
| 2026-05-07 16:27 | 38.52851 | -7.88928 | 810 ft | 13 kts | 184° |
| 2026-05-07 16:28 | 38.52823 | -7.88940 | 810 ft | 0 kts | 218° |
| 2026-05-07 16:28 | 38.52814 | -7.88949 | 810 ft | 5 kts | 220° |
| 2026-05-07 16:28 | 38.52791 | -7.89020 | 810 ft | 8 kts | 307° |
| 2026-05-07 16:28 | 38.52811 | -7.89024 | 810 ft | 7 kts | 2° |
| 2026-05-07 16:29 | 38.53076 | -7.89002 | 811 ft | 64 kts | 5° |
| 2026-05-07 16:29 | 38.53565 | -7.88943 | 969 ft | 71 kts | 5° |
| 2026-05-07 16:29 | 38.54074 | -7.88863 | 1119 ft | 82 kts | 12° |
| 2026-05-07 16:29 | 38.54551 | -7.88427 | 1250 ft | 92 kts | 56° |
| 2026-05-07 16:30 | 38.54665 | -7.87643 | 1415 ft | 87 kts | 89° |
| 2026-05-07 16:30 | 38.54526 | -7.86885 | 1495 ft | 93 kts | 121° |
| 2026-05-07 16:30 | 38.54012 | -7.86386 | 1554 ft | 97 kts | 161° |
| 2026-05-07 16:30 | 38.53350 | -7.86334 | 1625 ft | 93 kts | 183° |
| 2026-05-07 16:31 | 38.52711 | -7.86335 | 1698 ft | 94 kts | 180° |
| 2026-05-07 16:31 | 38.52151 | -7.86631 | 1784 ft | 90 kts | 239° |
| 2026-05-07 16:31 | 38.52009 | -7.87428 | 1788 ft | 94 kts | 267° |
| 2026-05-07 16:31 | 38.52003 | -7.88255 | 1826 ft | 93 kts | 275° |
| 2026-05-07 16:32 | 38.52040 | -7.89080 | 1835 ft | 93 kts | 276° |
| 2026-05-07 16:32 | 38.52099 | -7.89890 | 1827 ft | 93 kts | 279° |
| 2026-05-07 16:32 | 38.52186 | -7.90705 | 1811 ft | 93 kts | 281° |
| 2026-05-07 16:32 | 38.52284 | -7.91524 | 1796 ft | 93 kts | 280° |
| 2026-05-07 16:33 | 38.52356 | -7.92343 | 1786 ft | 93 kts | 278° |
| 2026-05-07 16:33 | 38.52423 | -7.93167 | 1773 ft | 93 kts | 277° |
| 2026-05-07 16:33 | 38.52473 | -7.93992 | 1761 ft | 93 kts | 276° |
| 2026-05-07 16:33 | 38.52504 | -7.94821 | 1749 ft | 93 kts | 274° |
| 2026-05-07 16:34 | 38.52516 | -7.95651 | 1739 ft | 94 kts | 272° |
| 2026-05-07 16:34 | 38.52516 | -7.96482 | 1732 ft | 94 kts | 272° |
| 2026-05-07 16:34 | 38.52523 | -7.97311 | 1729 ft | 93 kts | 273° |
| 2026-05-07 16:34 | 38.52535 | -7.98131 | 1725 ft | 93 kts | 274° |
| 2026-05-07 16:35 | 38.52544 | -7.98949 | 1754 ft | 90 kts | 273° |
| 2026-05-07 16:35 | 38.52548 | -7.99748 | 1747 ft | 92 kts | 272° |
| 2026-05-07 16:35 | 38.52544 | -8.00553 | 1772 ft | 90 kts | 272° |
| 2026-05-07 16:35 | 38.52531 | -8.01358 | 1768 ft | 91 kts | 271° |
| 2026-05-07 16:36 | 38.52517 | -8.02177 | 1791 ft | 93 kts | 271° |
| 2026-05-07 16:36 | 38.52503 | -8.03010 | 1805 ft | 94 kts | 271° |
| 2026-05-07 16:36 | 38.52522 | -8.03843 | 1834 ft | 94 kts | 282° |
| 2026-05-07 16:36 | 38.52702 | -8.04648 | 1895 ft | 93 kts | 289° |
| 2026-05-07 16:37 | 38.52888 | -8.05426 | 1992 ft | 91 kts | 289° |
| 2026-05-07 16:37 | 38.53067 | -8.06206 | 2028 ft | 93 kts | 288° |
| 2026-05-07 16:37 | 38.53278 | -8.06991 | 2045 ft | 95 kts | 295° |
| 2026-05-07 16:37 | 38.53543 | -8.07774 | 2045 ft | 97 kts | 296° |
| 2026-05-07 16:38 | 38.53829 | -8.08564 | 2027 ft | 99 kts | 298° |
| 2026-05-07 16:38 | 38.54149 | -8.09334 | 2034 ft | 98 kts | 301° |
| 2026-05-07 16:38 | 38.54521 | -8.10061 | 2004 ft | 100 kts | 313° |
| 2026-05-07 16:38 | 38.55059 | -8.10603 | 1984 ft | 99 kts | 331° |
| 2026-05-07 16:39 | 38.55672 | -8.10993 | 2011 ft | 96 kts | 335° |
| 2026-05-07 16:39 | 38.56271 | -8.11363 | 2000 ft | 97 kts | 331° |
| 2026-05-07 16:39 | 38.56859 | -8.11789 | 2006 ft | 97 kts | 330° |
| 2026-05-07 16:39 | 38.57446 | -8.12215 | 2004 ft | 97 kts | 330° |
| 2026-05-07 16:40 | 38.58032 | -8.12647 | 2005 ft | 97 kts | 330° |
| 2026-05-07 16:40 | 38.58614 | -8.13086 | 2005 ft | 97 kts | 329° |
| 2026-05-07 16:40 | 38.59203 | -8.13514 | 2001 ft | 97 kts | 332° |
| 2026-05-07 16:40 | 38.59802 | -8.13917 | 2002 ft | 97 kts | 333° |
| 2026-05-07 16:41 | 38.60409 | -8.14304 | 2000 ft | 97 kts | 334° |
| 2026-05-07 16:41 | 38.61016 | -8.14688 | 2001 ft | 97 kts | 333° |
| 2026-05-07 16:41 | 38.61617 | -8.15081 | 2000 ft | 97 kts | 333° |
| 2026-05-07 16:41 | 38.62216 | -8.15490 | 1999 ft | 97 kts | 332° |
| 2026-05-07 16:42 | 38.62807 | -8.15910 | 1999 ft | 97 kts | 330° |
| 2026-05-07 16:42 | 38.63392 | -8.16347 | 1998 ft | 97 kts | 329° |
| 2026-05-07 16:42 | 38.63969 | -8.16800 | 1997 ft | 97 kts | 328° |
| 2026-05-07 16:42 | 38.64539 | -8.17273 | 1996 ft | 97 kts | 326° |
| 2026-05-07 16:43 | 38.65020 | -8.17881 | 1984 ft | 99 kts | 303° |
| 2026-05-07 16:43 | 38.65204 | -8.18733 | 1972 ft | 101 kts | 273° |
| 2026-05-07 16:43 | 38.65057 | -8.19606 | 1982 ft | 102 kts | 252° |
| 2026-05-07 16:43 | 38.64805 | -8.20450 | 1972 ft | 103 kts | 251° |
| 2026-05-07 16:44 | 38.64530 | -8.21286 | 1981 ft | 102 kts | 250° |
| 2026-05-07 16:44 | 38.64255 | -8.22128 | 1972 ft | 103 kts | 250° |
| 2026-05-07 16:44 | 38.63973 | -8.22965 | 1976 ft | 102 kts | 249° |
| 2026-05-07 16:44 | 38.63683 | -8.23797 | 1975 ft | 102 kts | 249° |
| 2026-05-07 16:45 | 38.63395 | -8.24631 | 1973 ft | 103 kts | 249° |
| 2026-05-07 16:45 | 38.63108 | -8.25468 | 1970 ft | 103 kts | 249° |
| 2026-05-07 16:45 | 38.62820 | -8.26300 | 1973 ft | 102 kts | 249° |
| 2026-05-07 16:45 | 38.62531 | -8.27136 | 1968 ft | 103 kts | 249° |
| 2026-05-07 16:46 | 38.62237 | -8.27966 | 1967 ft | 103 kts | 248° |
| 2026-05-07 16:46 | 38.61935 | -8.28792 | 1972 ft | 102 kts | 248° |
| 2026-05-07 16:46 | 38.61627 | -8.29605 | 1965 ft | 103 kts | 247° |
| 2026-05-07 16:46 | 38.61313 | -8.30418 | 1984 ft | 102 kts | 246° |
| 2026-05-07 16:47 | 38.60993 | -8.31233 | 1970 ft | 103 kts | 247° |
| 2026-05-07 16:47 | 38.60685 | -8.32054 | 1978 ft | 102 kts | 248° |
| 2026-05-07 16:47 | 38.60378 | -8.32875 | 1976 ft | 103 kts | 247° |
| 2026-05-07 16:47 | 38.60065 | -8.33695 | 1978 ft | 102 kts | 246° |
| 2026-05-07 16:48 | 38.59756 | -8.34515 | 1977 ft | 103 kts | 248° |
| 2026-05-07 16:48 | 38.59456 | -8.35344 | 1976 ft | 102 kts | 248° |
| 2026-05-07 16:48 | 38.59162 | -8.36170 | 1978 ft | 102 kts | 249° |
| 2026-05-07 16:48 | 38.58866 | -8.37001 | 1977 ft | 102 kts | 248° |
| 2026-05-07 16:49 | 38.58670 | -8.37546 | 1979 ft | 102 kts | 248° |
| 2026-05-07 16:49 | 38.58354 | -8.38366 | 1980 ft | 103 kts | 246° |
| 2026-05-07 16:49 | 38.58038 | -8.39185 | 1978 ft | 103 kts | 247° |
| 2026-05-07 16:49 | 38.57726 | -8.40005 | 1979 ft | 103 kts | 247° |
| 2026-05-07 16:50 | 38.57313 | -8.41092 | 1979 ft | 103 kts | 247° |
| 2026-05-07 16:50 | 38.57100 | -8.41645 | 1979 ft | 103 kts | 246° |
| 2026-05-07 16:50 | 38.56780 | -8.42461 | 1981 ft | 102 kts | 246° |
| 2026-05-07 16:50 | 38.56458 | -8.43279 | 1978 ft | 103 kts | 246° |
| 2026-05-07 16:51 | 38.56136 | -8.44088 | 1979 ft | 103 kts | 246° |
| 2026-05-07 16:51 | 38.55806 | -8.44898 | 1979 ft | 103 kts | 245° |
| 2026-05-07 16:51 | 38.55472 | -8.45694 | 1977 ft | 103 kts | 244° |
| 2026-05-07 16:51 | 38.55124 | -8.46503 | 1976 ft | 103 kts | 245° |
| 2026-05-07 16:52 | 38.54809 | -8.47312 | 1971 ft | 103 kts | 248° |
| 2026-05-07 16:52 | 38.54527 | -8.48149 | 1971 ft | 102 kts | 251° |
| 2026-05-07 16:52 | 38.54270 | -8.48998 | 1969 ft | 102 kts | 253° |
| 2026-05-07 16:52 | 38.54032 | -8.49855 | 1968 ft | 102 kts | 255° |
| 2026-05-07 16:53 | 38.53821 | -8.50718 | 1965 ft | 102 kts | 257° |
| 2026-05-07 16:53 | 38.53634 | -8.51590 | 1967 ft | 101 kts | 258° |
| 2026-05-07 16:53 | 38.53460 | -8.52459 | 1977 ft | 101 kts | 259° |
| 2026-05-07 16:53 | 38.53290 | -8.53326 | 1980 ft | 101 kts | 259° |
| 2026-05-07 16:54 | 38.53145 | -8.54209 | 1968 ft | 102 kts | 264° |
| 2026-05-07 16:54 | 38.53027 | -8.55091 | 1981 ft | 100 kts | 262° |
| 2026-05-07 16:54 | 38.52918 | -8.55973 | 1974 ft | 101 kts | 267° |
| 2026-05-07 16:54 | 38.52871 | -8.56869 | 1973 ft | 100 kts | 270° |
| 2026-05-07 16:55 | 38.52836 | -8.57756 | 1979 ft | 100 kts | 270° |
| 2026-05-07 16:55 | 38.52800 | -8.58646 | 1976 ft | 100 kts | 270° |
| 2026-05-07 16:55 | 38.52764 | -8.59523 | 1980 ft | 100 kts | 270° |
| 2026-05-07 16:55 | 38.52721 | -8.60413 | 1979 ft | 100 kts | 269° |
| 2026-05-07 16:56 | 38.52669 | -8.61305 | 1980 ft | 100 kts | 268° |
| 2026-05-07 16:56 | 38.52612 | -8.62193 | 1978 ft | 101 kts | 270° |
| 2026-05-07 16:56 | 38.52557 | -8.63976 | 1980 ft | 100 kts | 271° |
| 2026-05-07 16:57 | 38.52530 | -8.64869 | 1978 ft | 100 kts | 270° |
| 2026-05-07 16:57 | 38.52503 | -8.65760 | 1979 ft | 100 kts | 271° |
| 2026-05-07 16:57 | 38.52481 | -8.66638 | 1977 ft | 100 kts | 271° |
| 2026-05-07 16:57 | 38.52460 | -8.67539 | 1978 ft | 100 kts | 271° |
| 2026-05-07 16:58 | 38.52434 | -8.68419 | 1979 ft | 100 kts | 270° |
| 2026-05-07 16:58 | 38.52405 | -8.69311 | 1977 ft | 100 kts | 270° |
| 2026-05-07 16:58 | 38.52376 | -8.70200 | 1977 ft | 100 kts | 270° |
| 2026-05-07 16:58 | 38.52342 | -8.71091 | 1976 ft | 100 kts | 270° |
| 2026-05-07 16:59 | 38.52301 | -8.71983 | 1975 ft | 100 kts | 269° |
| 2026-05-07 16:59 | 38.52264 | -8.72875 | 1973 ft | 101 kts | 270° |
| 2026-05-07 16:59 | 38.52232 | -8.73765 | 1974 ft | 100 kts | 270° |
| 2026-05-07 16:59 | 38.52201 | -8.74659 | 1971 ft | 101 kts | 271° |
| 2026-05-07 17:00 | 38.52202 | -8.75552 | 1967 ft | 100 kts | 273° |
| 2026-05-07 17:00 | 38.52208 | -8.76442 | 1969 ft | 100 kts | 273° |
| 2026-05-07 17:00 | 38.52218 | -8.77321 | 1965 ft | 100 kts | 274° |
| 2026-05-07 17:00 | 38.52230 | -8.78213 | 1965 ft | 100 kts | 274° |
| 2026-05-07 17:01 | 38.52232 | -8.79103 | 1964 ft | 100 kts | 272° |
| 2026-05-07 17:01 | 38.52218 | -8.79999 | 1962 ft | 101 kts | 271° |
| 2026-05-07 17:01 | 38.52193 | -8.80893 | 1961 ft | 101 kts | 270° |
| 2026-05-07 17:01 | 38.52171 | -8.81788 | 1957 ft | 101 kts | 271° |
| 2026-05-07 17:02 | 38.52156 | -8.82680 | 1956 ft | 101 kts | 271° |
| 2026-05-07 17:02 | 38.52141 | -8.83564 | 1953 ft | 101 kts | 271° |
| 2026-05-07 17:02 | 38.52124 | -8.84455 | 1952 ft | 100 kts | 271° |
| 2026-05-07 17:02 | 38.52101 | -8.85344 | 1961 ft | 100 kts | 271° |
| 2026-05-07 17:03 | 38.52071 | -8.86234 | 1952 ft | 101 kts | 270° |
| 2026-05-07 17:03 | 38.52030 | -8.87132 | 1949 ft | 101 kts | 269° |
| 2026-05-07 17:03 | 38.51983 | -8.88017 | 1966 ft | 100 kts | 269° |
| 2026-05-07 17:03 | 38.51952 | -8.88904 | 1967 ft | 100 kts | 271° |
| 2026-05-07 17:04 | 38.51933 | -8.89792 | 1968 ft | 100 kts | 271° |
| 2026-05-07 17:04 | 38.51921 | -8.90680 | 1972 ft | 100 kts | 272° |
| 2026-05-07 17:04 | 38.51912 | -8.91565 | 1974 ft | 100 kts | 272° |
| 2026-05-07 17:04 | 38.51900 | -8.92442 | 1976 ft | 100 kts | 272° |
| 2026-05-07 17:05 | 38.51892 | -8.93330 | 1978 ft | 100 kts | 272° |
| 2026-05-07 17:05 | 38.51878 | -8.94216 | 1981 ft | 100 kts | 271° |
| 2026-05-07 17:05 | 38.51856 | -8.95103 | 1982 ft | 100 kts | 271° |
| 2026-05-07 17:05 | 38.51834 | -8.95992 | 1983 ft | 100 kts | 271° |
| 2026-05-07 17:06 | 38.51813 | -8.96881 | 1985 ft | 100 kts | 271° |
| 2026-05-07 17:06 | 38.51790 | -8.97767 | 1986 ft | 100 kts | 271° |
| 2026-05-07 17:06 | 38.51761 | -8.98655 | 1987 ft | 100 kts | 270° |
| 2026-05-07 17:06 | 38.51724 | -8.99546 | 1988 ft | 100 kts | 269° |
| 2026-05-07 17:07 | 38.51677 | -9.00432 | 1989 ft | 100 kts | 269° |
| 2026-05-07 17:07 | 38.51618 | -9.01320 | 1989 ft | 100 kts | 268° |
| 2026-05-07 17:07 | 38.51547 | -9.02208 | 1989 ft | 100 kts | 268° |
| 2026-05-07 17:07 | 38.51504 | -9.03098 | 1985 ft | 100 kts | 270° |
| 2026-05-07 17:08 | 38.51480 | -9.03977 | 1988 ft | 100 kts | 271° |
| 2026-05-07 17:08 | 38.51465 | -9.04866 | 1985 ft | 100 kts | 272° |
| 2026-05-07 17:08 | 38.51454 | -9.05756 | 1986 ft | 100 kts | 272° |
| 2026-05-07 17:08 | 38.51444 | -9.06644 | 1986 ft | 100 kts | 272° |
| 2026-05-07 17:09 | 38.51430 | -9.07538 | 1985 ft | 100 kts | 271° |
| 2026-05-07 17:09 | 38.51409 | -9.08428 | 1985 ft | 100 kts | 271° |
| 2026-05-07 17:09 | 38.51380 | -9.09318 | 1984 ft | 100 kts | 270° |
| 2026-05-07 17:09 | 38.51341 | -9.10210 | 1983 ft | 100 kts | 269° |
| 2026-05-07 17:10 | 38.51289 | -9.11099 | 1983 ft | 101 kts | 268° |
| 2026-05-07 17:10 | 38.51224 | -9.11989 | 1982 ft | 101 kts | 267° |
| 2026-05-07 17:10 | 38.51144 | -9.12880 | 1981 ft | 101 kts | 266° |
| 2026-05-07 17:10 | 38.51051 | -9.13757 | 1980 ft | 101 kts | 264° |
| 2026-05-07 17:11 | 38.50961 | -9.14650 | 1971 ft | 101 kts | 268° |
| 2026-05-07 17:11 | 38.50936 | -9.15551 | 1969 ft | 101 kts | 271° |
| 2026-05-07 17:11 | 38.50927 | -9.16436 | 1962 ft | 98 kts | 272° |
| 2026-05-07 17:11 | 38.50926 | -9.17297 | 1875 ft | 95 kts | 277° |
| 2026-05-07 17:12 | 38.51212 | -9.18038 | 1703 ft | 96 kts | 321° |
| 2026-05-07 17:12 | 38.51845 | -9.18317 | 1537 ft | 98 kts | 350° |
| 2026-05-07 17:12 | 38.52532 | -9.18435 | 1461 ft | 99 kts | 353° |
| 2026-05-07 17:12 | 38.53213 | -9.18519 | 1437 ft | 98 kts | 355° |
| 2026-05-07 17:13 | 38.53897 | -9.18581 | 1378 ft | 99 kts | 356° |
| 2026-05-07 17:13 | 38.54577 | -9.18653 | 1381 ft | 96 kts | 353° |
| 2026-05-07 17:13 | 38.55235 | -9.18789 | 1378 ft | 99 kts | 348° |
| 2026-05-07 17:13 | 38.55913 | -9.19000 | 1432 ft | 98 kts | 342° |
| 2026-05-07 17:14 | 38.56535 | -9.19350 | 1492 ft | 98 kts | 332° |
| 2026-05-07 17:14 | 38.57107 | -9.19806 | 1517 ft | 98 kts | 328° |
| 2026-05-07 17:14 | 38.57686 | -9.20304 | 1479 ft | 100 kts | 325° |
| 2026-05-07 17:14 | 38.58224 | -9.20852 | 1471 ft | 98 kts | 319° |
| 2026-05-07 17:15 | 38.58729 | -9.21455 | 1439 ft | 100 kts | 316° |
| 2026-05-07 17:15 | 38.59224 | -9.22065 | 1430 ft | 98 kts | 317° |
| 2026-05-07 17:15 | 38.59732 | -9.22663 | 1400 ft | 99 kts | 319° |
| 2026-05-07 17:15 | 38.60238 | -9.23247 | 1410 ft | 97 kts | 319° |
| 2026-05-07 17:16 | 38.60741 | -9.23811 | 1414 ft | 97 kts | 320° |
| 2026-05-07 17:16 | 38.61258 | -9.24386 | 1417 ft | 98 kts | 319° |
| 2026-05-07 17:16 | 38.61764 | -9.24950 | 1423 ft | 97 kts | 321° |
| 2026-05-07 17:16 | 38.62276 | -9.25521 | 1427 ft | 98 kts | 317° |
| 2026-05-07 17:17 | 38.62770 | -9.26123 | 1430 ft | 98 kts | 318° |
| 2026-05-07 17:17 | 38.63271 | -9.26712 | 1435 ft | 98 kts | 319° |
| 2026-05-07 17:17 | 38.63779 | -9.27289 | 1438 ft | 98 kts | 320° |
| 2026-05-07 17:17 | 38.64287 | -9.27870 | 1437 ft | 98 kts | 317° |
| 2026-05-07 17:18 | 38.64767 | -9.28471 | 1406 ft | 97 kts | 317° |
| 2026-05-07 17:18 | 38.65261 | -9.29061 | 1350 ft | 96 kts | 318° |
| 2026-05-07 17:18 | 38.65756 | -9.29630 | 1306 ft | 94 kts | 319° |
| 2026-05-07 17:18 | 38.66235 | -9.30210 | 1214 ft | 96 kts | 316° |
| 2026-05-07 17:19 | 38.66709 | -9.30805 | 1115 ft | 95 kts | 316° |
| 2026-05-07 17:19 | 38.67159 | -9.31409 | 1011 ft | 94 kts | 313° |
| 2026-05-07 17:19 | 38.67587 | -9.32020 | 937 ft | 93 kts | 312° |
| 2026-05-07 17:19 | 38.68017 | -9.32642 | 852 ft | 92 kts | 312° |
| 2026-05-07 17:20 | 38.68441 | -9.33232 | 812 ft | 86 kts | 314° |
| 2026-05-07 17:20 | 38.68842 | -9.33752 | 795 ft | 79 kts | 318° |
| 2026-05-07 17:20 | 38.69291 | -9.34211 | 694 ft | 82 kts | 325° |
| 2026-05-07 17:20 | 38.69723 | -9.34531 | 712 ft | 71 kts | 337° |
| 2026-05-07 17:21 | 38.70185 | -9.34727 | 648 ft | 69 kts | 345° |
| 2026-05-07 17:21 | 38.70649 | -9.34863 | 594 ft | 68 kts | 349° |
| 2026-05-07 17:21 | 38.71104 | -9.35008 | 523 ft | 69 kts | 343° |
| 2026-05-07 17:21 | 38.71570 | -9.35175 | 427 ft | 68 kts | 343° |
| 2026-05-07 17:22 | 38.71991 | -9.35331 | 333 ft | 59 kts | 344° |
| 2026-05-07 17:22 | 38.72276 | -9.35433 | 328 ft | 13 kts | 344° |
| 2026-05-07 17:22 | 38.72313 | -9.35425 | 328 ft | 3 kts | 71° |
| 2026-05-07 17:22 | 38.72321 | -9.35396 | 328 ft | 5 kts | 71° |
| 2026-05-07 17:23 | 38.72328 | -9.35342 | 328 ft | 8 kts | 97° |
| 2026-05-07 17:23 | 38.72321 | -9.35278 | 328 ft | 6 kts | 51° |
| 2026-05-07 17:23 | 38.72327 | -9.35276 | 328 ft | 0 kts | 331° |
| 2026-05-07 17:26 | 38.72328 | -9.35276 | 328 ft | 0 kts | 331° |